Core, West Virginia
Current Conditions -  °F | °C
As of 3:10 AM on Tuesday 21 Oct 2014 (Local Time) from KMGW Reporting Station
Overcast Overcast  
Wind Chill: 12°   Ceiling: 2600
Heat Index: 12°   Visibility: 10mi
Dew Point:   Wind: 3mph
Humidity: 80%   Direction: 230°SW
Pressure: 29.88"   Gusts: NA
Location:  39.68°N, 80.11°W
Report Text: KMGW 210710Z AUTO 23003KT 10SM BKN026 BKN035 OVC075 12/08 A2988 RMK AO2 T01170083 TSNO
Loading
Personal Weather Stations






























Interactive Weather Map
Tropical Storm Tracking
New forecast layout! Learn more

10-Day Weather Forecast

Advertisements
Track Severe Weather on mobile